sensor_id;sensor_type;location;lat;lon;timestamp;P1;durP1;ratioP1;P2;durP2;ratioP2
16669;SDS011;8448;52.034;5.158;2023-08-01T00:01:33;5.32;;;2.70;;
16669;SDS011;8448;52.034;5.158;2023-08-01T00:04:00;6.18;;;2.80;;
16669;SDS011;8448;52.034;5.158;2023-08-01T00:06:27;5.72;;;3.13;;
16669;SDS011;8448;52.034;5.158;2023-08-01T00:08:56;6.53;;;2.80;;
16669;SDS011;8448;52.034;5.158;2023-08-01T00:11:23;4.75;;;2.50;;
16669;SDS011;8448;52.034;5.158;2023-08-01T00:13:52;7.47;;;3.50;;
16669;SDS011;8448;52.034;5.158;2023-08-01T00:16:19;6.30;;;3.08;;
16669;SDS011;8448;52.034;5.158;2023-08-01T00:18:47;7.00;;;3.90;;
16669;SDS011;8448;52.034;5.158;2023-08-01T00:21:14;6.18;;;3.70;;
16669;SDS011;8448;52.034;5.158;2023-08-01T00:23:42;6.18;;;3.45;;
16669;SDS011;8448;52.034;5.158;2023-08-01T00:26:09;6.70;;;3.50;;
16669;SDS011;8448;52.034;5.158;2023-08-01T00:28:37;6.63;;;3.90;;
16669;SDS011;8448;52.034;5.158;2023-08-01T00:31:06;9.23;;;3.50;;
16669;SDS011;8448;52.034;5.158;2023-08-01T00:33:35;6.22;;;3.90;;
16669;SDS011;8448;52.034;5.158;2023-08-01T00:36:02;5.55;;;3.60;;
16669;SDS011;8448;52.034;5.158;2023-08-01T00:38:34;5.30;;;3.72;;
16669;SDS011;8448;52.034;5.158;2023-08-01T00:41:02;6.20;;;4.15;;
16669;SDS011;8448;52.034;5.158;2023-08-01T00:43:29;7.15;;;4.90;;
16669;SDS011;8448;52.034;5.158;2023-08-01T00:45:59;6.05;;;4.03;;
16669;SDS011;8448;52.034;5.158;2023-08-01T00:48:28;7.78;;;4.03;;
16669;SDS011;8448;52.034;5.158;2023-08-01T00:50:57;6.93;;;4.00;;
16669;SDS011;8448;52.034;5.158;2023-08-01T00:53:28;7.68;;;4.30;;
16669;SDS011;8448;52.034;5.158;2023-08-01T00:55:57;7.10;;;4.22;;
16669;SDS011;8448;52.034;5.158;2023-08-01T00:58:25;8.52;;;4.30;;
16669;SDS011;8448;52.034;5.158;2023-08-01T01:00:52;9.82;;;4.88;;
16669;SDS011;8448;52.034;5.158;2023-08-01T01:03:20;7.47;;;4.28;;
16669;SDS011;8448;52.034;5.158;2023-08-01T01:05:52;7.97;;;4.30;;
16669;SDS011;8448;52.034;5.158;2023-08-01T01:08:22;8.20;;;4.40;;
16669;SDS011;8448;52.034;5.158;2023-08-01T01:10:50;9.90;;;4.82;;
16669;SDS011;8448;52.034;5.158;2023-08-01T01:13:17;8.18;;;4.43;;
16669;SDS011;8448;52.034;5.158;2023-08-01T01:15:45;10.20;;;4.65;;
16669;SDS011;8448;52.034;5.158;2023-08-01T01:18:12;13.73;;;5.10;;
16669;SDS011;8448;52.034;5.158;2023-08-01T01:20:41;10.80;;;4.75;;
16669;SDS011;8448;52.034;5.158;2023-08-01T01:23:09;8.02;;;4.28;;
16669;SDS011;8448;52.034;5.158;2023-08-01T01:25:36;10.30;;;4.88;;
16669;SDS011;8448;52.034;5.158;2023-08-01T01:28:05;12.77;;;4.82;;
16669;SDS011;8448;52.034;5.158;2023-08-01T01:30:33;10.02;;;4.90;;
16669;SDS011;8448;52.034;5.158;2023-08-01T01:33:00;10.50;;;4.30;;
16669;SDS011;8448;52.034;5.158;2023-08-01T01:35:28;8.00;;;4.18;;
16669;SDS011;8448;52.034;5.158;2023-08-01T01:37:57;8.13;;;4.30;;
16669;SDS011;8448;52.034;5.158;2023-08-01T01:40:28;8.73;;;4.97;;
16669;SDS011;8448;52.034;5.158;2023-08-01T01:42:56;13.18;;;4.47;;
16669;SDS011;8448;52.034;5.158;2023-08-01T01:45:24;7.20;;;3.90;;
16669;SDS011;8448;52.034;5.158;2023-08-01T01:47:51;10.45;;;4.13;;
16669;SDS011;8448;52.034;5.158;2023-08-01T01:50:19;11.07;;;4.43;;
16669;SDS011;8448;52.034;5.158;2023-08-01T01:52:46;11.98;;;4.55;;
16669;SDS011;8448;52.034;5.158;2023-08-01T01:55:15;10.90;;;4.78;;
16669;SDS011;8448;52.034;5.158;2023-08-01T01:57:42;7.80;;;4.10;;
16669;SDS011;8448;52.034;5.158;2023-08-01T02:00:11;9.27;;;4.70;;
16669;SDS011;8448;52.034;5.158;2023-08-01T02:02:39;9.73;;;4.63;;
16669;SDS011;8448;52.034;5.158;2023-08-01T02:05:06;11.63;;;4.93;;
16669;SDS011;8448;52.034;5.158;2023-08-01T02:07:34;9.70;;;4.93;;
16669;SDS011;8448;52.034;5.158;2023-08-01T02:10:01;9.70;;;5.10;;
16669;SDS011;8448;52.034;5.158;2023-08-01T02:12:33;10.32;;;5.00;;
16669;SDS011;8448;52.034;5.158;2023-08-01T02:15:01;9.55;;;4.50;;
16669;SDS011;8448;52.034;5.158;2023-08-01T02:17:29;12.30;;;4.75;;
16669;SDS011;8448;52.034;5.158;2023-08-01T02:19:56;10.32;;;4.65;;
16669;SDS011;8448;52.034;5.158;2023-08-01T02:22:24;11.68;;;4.78;;
16669;SDS011;8448;52.034;5.158;2023-08-01T02:24:52;9.43;;;4.63;;
16669;SDS011;8448;52.034;5.158;2023-08-01T02:27:19;12.00;;;4.70;;
16669;SDS011;8448;52.034;5.158;2023-08-01T02:29:49;12.00;;;4.40;;
16669;SDS011;8448;52.034;5.158;2023-08-01T02:32:16;8.88;;;4.35;;
16669;SDS011;8448;52.034;5.158;2023-08-01T02:34:44;9.10;;;4.32;;
16669;SDS011;8448;52.034;5.158;2023-08-01T02:37:11;9.32;;;4.32;;
16669;SDS011;8448;52.034;5.158;2023-08-01T02:39:38;9.93;;;4.55;;
16669;SDS011;8448;52.034;5.158;2023-08-01T02:42:06;9.20;;;3.83;;
16669;SDS011;8448;52.034;5.158;2023-08-01T02:44:33;8.50;;;4.35;;
16669;SDS011;8448;52.034;5.158;2023-08-01T02:47:02;12.07;;;4.40;;
16669;SDS011;8448;52.034;5.158;2023-08-01T02:49:31;12.48;;;4.38;;
16669;SDS011;8448;52.034;5.158;2023-08-01T02:51:58;8.15;;;4.10;;
16669;SDS011;8448;52.034;5.158;2023-08-01T02:54:25;10.90;;;4.22;;
16669;SDS011;8448;52.034;5.158;2023-08-01T02:56:53;11.50;;;4.47;;
16669;SDS011;8448;52.034;5.158;2023-08-01T02:59:20;12.23;;;4.00;;
16669;SDS011;8448;52.034;5.158;2023-08-01T03:01:49;10.75;;;4.72;;
16669;SDS011;8448;52.034;5.158;2023-08-01T03:04:20;11.10;;;4.10;;
16669;SDS011;8448;52.034;5.158;2023-08-01T03:06:47;8.85;;;4.10;;
16669;SDS011;8448;52.034;5.158;2023-08-01T03:09:14;8.07;;;4.00;;
16669;SDS011;8448;52.034;5.158;2023-08-01T03:11:42;8.90;;;3.70;;
16669;SDS011;8448;52.034;5.158;2023-08-01T03:14:09;11.98;;;4.30;;
16669;SDS011;8448;52.034;5.158;2023-08-01T03:16:37;11.65;;;4.07;;
16669;SDS011;8448;52.034;5.158;2023-08-01T03:19:04;11.20;;;4.18;;
16669;SDS011;8448;52.034;5.158;2023-08-01T03:21:33;9.90;;;4.35;;
16669;SDS011;8448;52.034;5.158;2023-08-01T03:24:01;10.73;;;4.30;;
16669;SDS011;8448;52.034;5.158;2023-08-01T03:26:33;11.98;;;4.43;;
16669;SDS011;8448;52.034;5.158;2023-08-01T03:29:01;10.82;;;4.70;;
16669;SDS011;8448;52.034;5.158;2023-08-01T03:31:31;10.10;;;4.50;;
16669;SDS011;8448;52.034;5.158;2023-08-01T03:33:59;8.63;;;4.38;;
16669;SDS011;8448;52.034;5.158;2023-08-01T03:36:27;7.40;;;3.70;;
16669;SDS011;8448;52.034;5.158;2023-08-01T03:38:55;8.65;;;4.30;;
16669;SDS011;8448;52.034;5.158;2023-08-01T03:41:23;8.10;;;3.80;;
16669;SDS011;8448;52.034;5.158;2023-08-01T03:43:50;11.63;;;5.03;;
16669;SDS011;8448;52.034;5.158;2023-08-01T03:46:18;9.90;;;4.55;;
16669;SDS011;8448;52.034;5.158;2023-08-01T03:48:47;9.57;;;4.93;;
16669;SDS011;8448;52.034;5.158;2023-08-01T03:51:16;12.50;;;5.78;;
16669;SDS011;8448;52.034;5.158;2023-08-01T03:53:44;13.15;;;5.65;;
16669;SDS011;8448;52.034;5.158;2023-08-01T03:56:13;12.00;;;4.93;;
16669;SDS011;8448;52.034;5.158;2023-08-01T03:58:40;11.52;;;5.45;;
16669;SDS011;8448;52.034;5.158;2023-08-01T04:01:08;9.90;;;5.07;;
16669;SDS011;8448;52.034;5.158;2023-08-01T04:03:36;12.35;;;5.80;;
16669;SDS011;8448;52.034;5.158;2023-08-01T04:06:04;14.23;;;5.43;;
16669;SDS011;8448;52.034;5.158;2023-08-01T04:08:32;13.45;;;5.60;;
16669;SDS011;8448;52.034;5.158;2023-08-01T04:10:59;15.35;;;5.65;;
16669;SDS011;8448;52.034;5.158;2023-08-01T04:13:28;12.60;;;5.50;;
16669;SDS011;8448;52.034;5.158;2023-08-01T04:15:55;11.63;;;5.38;;
16669;SDS011;8448;52.034;5.158;2023-08-01T04:18:23;14.45;;;5.53;;
16669;SDS011;8448;52.034;5.158;2023-08-01T04:20:50;12.40;;;5.68;;
16669;SDS011;8448;52.034;5.158;2023-08-01T04:23:17;9.45;;;5.18;;
16669;SDS011;8448;52.034;5.158;2023-08-01T04:25:45;12.05;;;5.53;;
16669;SDS011;8448;52.034;5.158;2023-08-01T04:28:12;13.75;;;5.82;;
16669;SDS011;8448;52.034;5.158;2023-08-01T04:30:41;12.23;;;6.00;;
16669;SDS011;8448;52.034;5.158;2023-08-01T04:33:08;12.13;;;5.78;;
16669;SDS011;8448;52.034;5.158;2023-08-01T04:35:36;12.95;;;5.85;;
16669;SDS011;8448;52.034;5.158;2023-08-01T04:38:03;12.35;;;6.18;;
16669;SDS011;8448;52.034;5.158;2023-08-01T04:40:30;14.80;;;5.68;;
16669;SDS011;8448;52.034;5.158;2023-08-01T04:42:58;12.70;;;5.75;;
16669;SDS011;8448;52.034;5.158;2023-08-01T04:45:26;13.82;;;6.03;;
16669;SDS011;8448;52.034;5.158;2023-08-01T04:47:55;15.80;;;5.70;;
16669;SDS011;8448;52.034;5.158;2023-08-01T04:50:22;15.32;;;6.00;;
16669;SDS011;8448;52.034;5.158;2023-08-01T04:52:49;14.30;;;5.80;;
16669;SDS011;8448;52.034;5.158;2023-08-01T04:55:17;12.27;;;5.55;;
16669;SDS011;8448;52.034;5.158;2023-08-01T04:57:44;12.55;;;4.97;;
16669;SDS011;8448;52.034;5.158;2023-08-01T05:00:12;12.07;;;5.72;;
16669;SDS011;8448;52.034;5.158;2023-08-01T05:02:40;12.90;;;5.90;;
16669;SDS011;8448;52.034;5.158;2023-08-01T05:05:08;14.50;;;5.97;;
16669;SDS011;8448;52.034;5.158;2023-08-01T05:07:36;13.05;;;5.45;;
16669;SDS011;8448;52.034;5.158;2023-08-01T05:10:04;12.15;;;5.78;;
16669;SDS011;8448;52.034;5.158;2023-08-01T05:12:31;15.27;;;5.43;;
16669;SDS011;8448;52.034;5.158;2023-08-01T05:14:59;15.95;;;5.85;;
16669;SDS011;8448;52.034;5.158;2023-08-01T05:17:26;12.38;;;6.10;;
16669;SDS011;8448;52.034;5.158;2023-08-01T05:19:54;15.98;;;5.97;;
16669;SDS011;8448;52.034;5.158;2023-08-01T05:22:22;14.20;;;5.47;;
16669;SDS011;8448;52.034;5.158;2023-08-01T05:24:50;13.07;;;5.30;;
16669;SDS011;8448;52.034;5.158;2023-08-01T05:27:20;11.63;;;5.00;;
16669;SDS011;8448;52.034;5.158;2023-08-01T05:29:47;10.55;;;5.10;;
16669;SDS011;8448;52.034;5.158;2023-08-01T05:32:15;12.30;;;5.28;;
16669;SDS011;8448;52.034;5.158;2023-08-01T05:34:42;14.13;;;5.38;;
16669;SDS011;8448;52.034;5.158;2023-08-01T05:37:10;12.43;;;4.90;;
16669;SDS011;8448;52.034;5.158;2023-08-01T05:39:38;10.55;;;4.50;;
16669;SDS011;8448;52.034;5.158;2023-08-01T05:42:06;11.68;;;4.55;;
16669;SDS011;8448;52.034;5.158;2023-08-01T05:44:34;12.18;;;5.00;;
16669;SDS011;8448;52.034;5.158;2023-08-01T05:47:02;12.25;;;4.60;;
16669;SDS011;8448;52.034;5.158;2023-08-01T05:49:29;12.45;;;4.75;;
16669;SDS011;8448;52.034;5.158;2023-08-01T05:51:57;11.60;;;4.53;;
16669;SDS011;8448;52.034;5.158;2023-08-01T05:54:24;10.48;;;4.75;;
16669;SDS011;8448;52.034;5.158;2023-08-01T05:56:53;10.77;;;4.65;;
16669;SDS011;8448;52.034;5.158;2023-08-01T05:59:20;10.45;;;4.40;;
16669;SDS011;8448;52.034;5.158;2023-08-01T06:01:47;8.30;;;4.10;;
16669;SDS011;8448;52.034;5.158;2023-08-01T06:04:15;8.93;;;3.90;;
16669;SDS011;8448;52.034;5.158;2023-08-01T06:06:42;10.85;;;4.20;;
16669;SDS011;8448;52.034;5.158;2023-08-01T06:09:10;9.20;;;4.07;;
16669;SDS011;8448;52.034;5.158;2023-08-01T06:11:37;11.75;;;4.45;;
16669;SDS011;8448;52.034;5.158;2023-08-01T06:14:06;10.75;;;3.50;;
16669;SDS011;8448;52.034;5.158;2023-08-01T06:16:35;11.20;;;4.32;;
16669;SDS011;8448;52.034;5.158;2023-08-01T06:19:02;10.25;;;4.10;;
16669;SDS011;8448;52.034;5.158;2023-08-01T06:21:30;10.55;;;4.00;;
16669;SDS011;8448;52.034;5.158;2023-08-01T06:23:57;12.32;;;4.22;;
16669;SDS011;8448;52.034;5.158;2023-08-01T06:26:24;10.23;;;4.00;;
16669;SDS011;8448;52.034;5.158;2023-08-01T06:28:52;8.90;;;3.90;;
16669;SDS011;8448;52.034;5.158;2023-08-01T06:31:21;9.20;;;4.10;;
16669;SDS011;8448;52.034;5.158;2023-08-01T06:33:48;9.85;;;4.20;;
16669;SDS011;8448;52.034;5.158;2023-08-01T06:36:16;8.85;;;3.88;;
16669;SDS011;8448;52.034;5.158;2023-08-01T06:38:43;7.80;;;3.65;;
16669;SDS011;8448;52.034;5.158;2023-08-01T06:41:11;9.05;;;3.78;;
16669;SDS011;8448;52.034;5.158;2023-08-01T06:43:38;12.82;;;4.03;;
16669;SDS011;8448;52.034;5.158;2023-08-01T06:46:06;9.82;;;3.72;;
16669;SDS011;8448;52.034;5.158;2023-08-01T06:48:34;8.07;;;3.50;;
16669;SDS011;8448;52.034;5.158;2023-08-01T06:51:02;11.93;;;4.05;;
16669;SDS011;8448;52.034;5.158;2023-08-01T06:53:29;7.07;;;3.65;;
16669;SDS011;8448;52.034;5.158;2023-08-01T06:55:57;10.68;;;3.80;;
16669;SDS011;8448;52.034;5.158;2023-08-01T06:58:24;10.57;;;3.67;;
16669;SDS011;8448;52.034;5.158;2023-08-01T07:00:51;8.65;;;3.63;;
16669;SDS011;8448;52.034;5.158;2023-08-01T07:03:19;9.05;;;3.50;;
16669;SDS011;8448;52.034;5.158;2023-08-01T07:05:47;9.10;;;3.70;;
16669;SDS011;8448;52.034;5.158;2023-08-01T07:08:15;4.97;;;2.90;;
16669;SDS011;8448;52.034;5.158;2023-08-01T07:10:42;8.88;;;3.53;;
16669;SDS011;8448;52.034;5.158;2023-08-01T07:13:10;7.05;;;3.22;;
16669;SDS011;8448;52.034;5.158;2023-08-01T07:15:37;8.63;;;3.33;;
16669;SDS011;8448;52.034;5.158;2023-08-01T07:18:04;6.30;;;3.33;;
16669;SDS011;8448;52.034;5.158;2023-08-01T07:20:32;6.93;;;3.40;;
16669;SDS011;8448;52.034;5.158;2023-08-01T07:23:01;7.43;;;3.38;;
16669;SDS011;8448;52.034;5.158;2023-08-01T07:25:28;11.63;;;3.70;;
16669;SDS011;8448;52.034;5.158;2023-08-01T07:27:56;10.52;;;3.42;;
16669;SDS011;8448;52.034;5.158;2023-08-01T07:30:23;8.23;;;3.80;;
16669;SDS011;8448;52.034;5.158;2023-08-01T07:32:51;9.55;;;4.05;;
16669;SDS011;8448;52.034;5.158;2023-08-01T07:35:18;9.55;;;4.03;;
16669;SDS011;8448;52.034;5.158;2023-08-01T07:37:46;11.82;;;4.18;;
16669;SDS011;8448;52.034;5.158;2023-08-01T07:40:14;10.10;;;4.15;;
16669;SDS011;8448;52.034;5.158;2023-08-01T07:42:42;11.32;;;3.30;;
16669;SDS011;8448;52.034;5.158;2023-08-01T07:45:09;7.75;;;4.00;;
16669;SDS011;8448;52.034;5.158;2023-08-01T07:47:37;11.18;;;4.28;;
16669;SDS011;8448;52.034;5.158;2023-08-01T07:50:04;7.80;;;4.07;;
16669;SDS011;8448;52.034;5.158;2023-08-01T07:52:32;8.50;;;3.80;;
16669;SDS011;8448;52.034;5.158;2023-08-01T07:55:00;10.10;;;3.92;;
16669;SDS011;8448;52.034;5.158;2023-08-01T07:57:28;9.10;;;3.60;;
16669;SDS011;8448;52.034;5.158;2023-08-01T07:59:56;9.60;;;3.72;;
16669;SDS011;8448;52.034;5.158;2023-08-01T08:02:23;6.15;;;3.50;;
16669;SDS011;8448;52.034;5.158;2023-08-01T08:04:51;7.88;;;3.22;;
16669;SDS011;8448;52.034;5.158;2023-08-01T08:07:18;8.80;;;3.10;;
16669;SDS011;8448;52.034;5.158;2023-08-01T08:09:45;10.35;;;3.53;;
16669;SDS011;8448;52.034;5.158;2023-08-01T08:12:13;6.90;;;3.17;;
16669;SDS011;8448;52.034;5.158;2023-08-01T08:14:42;7.30;;;3.10;;
16669;SDS011;8448;52.034;5.158;2023-08-01T08:17:09;7.57;;;2.60;;
16669;SDS011;8448;52.034;5.158;2023-08-01T08:19:37;6.82;;;2.85;;
16669;SDS011;8448;52.034;5.158;2023-08-01T08:22:04;7.25;;;3.00;;
16669;SDS011;8448;52.034;5.158;2023-08-01T08:24:31;6.18;;;2.65;;
16669;SDS011;8448;52.034;5.158;2023-08-01T08:26:59;6.28;;;2.30;;
16669;SDS011;8448;52.034;5.158;2023-08-01T08:29:26;7.07;;;3.00;;
16669;SDS011;8448;52.034;5.158;2023-08-01T08:31:55;5.68;;;2.60;;
16669;SDS011;8448;52.034;5.158;2023-08-01T08:34:22;5.25;;;2.45;;
16669;SDS011;8448;52.034;5.158;2023-08-01T08:36:50;6.72;;;2.38;;
16669;SDS011;8448;52.034;5.158;2023-08-01T08:39:18;6.13;;;2.15;;
16669;SDS011;8448;52.034;5.158;2023-08-01T08:41:46;6.97;;;2.45;;
16669;SDS011;8448;52.034;5.158;2023-08-01T08:44:14;6.30;;;2.42;;
16669;SDS011;8448;52.034;5.158;2023-08-01T08:46:43;7.38;;;2.75;;
16669;SDS011;8448;52.034;5.158;2023-08-01T08:49:12;6.07;;;2.20;;
16669;SDS011;8448;52.034;5.158;2023-08-01T08:51:41;5.47;;;2.08;;
16669;SDS011;8448;52.034;5.158;2023-08-01T08:54:10;5.35;;;2.30;;
16669;SDS011;8448;52.034;5.158;2023-08-01T08:56:37;5.55;;;2.28;;
16669;SDS011;8448;52.034;5.158;2023-08-01T08:59:06;5.50;;;2.10;;
16669;SDS011;8448;52.034;5.158;2023-08-01T09:01:35;8.65;;;2.65;;
16669;SDS011;8448;52.034;5.158;2023-08-01T09:04:03;6.32;;;2.40;;
16669;SDS011;8448;52.034;5.158;2023-08-01T09:06:32;7.18;;;2.33;;
16669;SDS011;8448;52.034;5.158;2023-08-01T09:09:04;6.43;;;2.60;;
16669;SDS011;8448;52.034;5.158;2023-08-01T09:11:41;6.97;;;2.75;;
16669;SDS011;8448;52.034;5.158;2023-08-01T09:14:10;7.43;;;2.50;;
16669;SDS011;8448;52.034;5.158;2023-08-01T09:16:39;6.35;;;3.03;;
16669;SDS011;8448;52.034;5.158;2023-08-01T09:19:07;9.10;;;2.97;;
16669;SDS011;8448;52.034;5.158;2023-08-01T09:21:39;6.72;;;2.47;;
16669;SDS011;8448;52.034;5.158;2023-08-01T09:24:10;7.10;;;2.65;;
16669;SDS011;8448;52.034;5.158;2023-08-01T09:26:39;7.00;;;2.50;;
16669;SDS011;8448;52.034;5.158;2023-08-01T09:29:07;8.80;;;2.40;;
16669;SDS011;8448;52.034;5.158;2023-08-01T09:31:35;6.93;;;2.25;;
16669;SDS011;8448;52.034;5.158;2023-08-01T09:34:05;5.75;;;2.45;;
16669;SDS011;8448;52.034;5.158;2023-08-01T09:36:44;8.15;;;2.90;;
16669;SDS011;8448;52.034;5.158;2023-08-01T09:39:15;6.80;;;2.40;;
16669;SDS011;8448;52.034;5.158;2023-08-01T09:41:43;8.80;;;2.17;;
16669;SDS011;8448;52.034;5.158;2023-08-01T09:44:10;4.75;;;2.47;;
16669;SDS011;8448;52.034;5.158;2023-08-01T09:46:38;6.90;;;2.38;;
16669;SDS011;8448;52.034;5.158;2023-08-01T09:49:06;6.30;;;2.67;;
16669;SDS011;8448;52.034;5.158;2023-08-01T09:51:45;5.03;;;2.20;;
16669;SDS011;8448;52.034;5.158;2023-08-01T09:54:15;7.05;;;2.15;;
16669;SDS011;8448;52.034;5.158;2023-08-01T09:56:44;7.70;;;2.00;;
16669;SDS011;8448;52.034;5.158;2023-08-01T09:59:12;7.45;;;2.45;;
16669;SDS011;8448;52.034;5.158;2023-08-01T10:01:41;6.40;;;2.65;;
16669;SDS011;8448;52.034;5.158;2023-08-01T10:04:11;6.75;;;2.55;;
16669;SDS011;8448;52.034;5.158;2023-08-01T10:06:40;9.50;;;3.40;;
16669;SDS011;8448;52.034;5.158;2023-08-01T10:09:11;7.32;;;2.40;;
16669;SDS011;8448;52.034;5.158;2023-08-01T10:11:39;7.55;;;2.60;;
16669;SDS011;8448;52.034;5.158;2023-08-01T10:14:07;6.53;;;2.30;;
16669;SDS011;8448;52.034;5.158;2023-08-01T10:16:35;6.15;;;2.60;;
16669;SDS011;8448;52.034;5.158;2023-08-01T10:19:04;4.22;;;1.92;;
16669;SDS011;8448;52.034;5.158;2023-08-01T10:21:33;4.63;;;2.13;;
16669;SDS011;8448;52.034;5.158;2023-08-01T10:24:01;3.70;;;1.60;;
16669;SDS011;8448;52.034;5.158;2023-08-01T10:26:31;3.75;;;1.70;;
16669;SDS011;8448;52.034;5.158;2023-08-01T10:28:58;6.00;;;2.28;;
16669;SDS011;8448;52.034;5.158;2023-08-01T10:31:27;5.05;;;1.88;;
16669;SDS011;8448;52.034;5.158;2023-08-01T10:34:03;4.95;;;2.17;;
16669;SDS011;8448;52.034;5.158;2023-08-01T10:36:31;5.32;;;1.92;;
16669;SDS011;8448;52.034;5.158;2023-08-01T10:38:59;3.83;;;2.00;;
16669;SDS011;8448;52.034;5.158;2023-08-01T10:41:28;4.95;;;2.25;;
16669;SDS011;8448;52.034;5.158;2023-08-01T10:44:04;9.90;;;2.47;;
16669;SDS011;8448;52.034;5.158;2023-08-01T10:46:45;5.25;;;2.38;;
16669;SDS011;8448;52.034;5.158;2023-08-01T10:49:13;6.38;;;2.10;;
16669;SDS011;8448;52.034;5.158;2023-08-01T10:51:41;4.50;;;2.05;;
16669;SDS011;8448;52.034;5.158;2023-08-01T10:54:17;6.15;;;2.35;;
16669;SDS011;8448;52.034;5.158;2023-08-01T10:56:48;3.95;;;1.92;;
16669;SDS011;8448;52.034;5.158;2023-08-01T10:59:17;6.15;;;2.13;;
16669;SDS011;8448;52.034;5.158;2023-08-01T11:01:45;7.30;;;2.03;;
16669;SDS011;8448;52.034;5.158;2023-08-01T11:04:13;5.18;;;2.30;;
16669;SDS011;8448;52.034;5.158;2023-08-01T11:06:45;7.70;;;2.40;;
16669;SDS011;8448;52.034;5.158;2023-08-01T11:09:17;5.70;;;2.17;;
16669;SDS011;8448;52.034;5.158;2023-08-01T11:11:45;5.63;;;2.10;;
16669;SDS011;8448;52.034;5.158;2023-08-01T11:14:16;5.50;;;2.10;;
16669;SDS011;8448;52.034;5.158;2023-08-01T11:16:45;3.83;;;2.15;;
16669;SDS011;8448;52.034;5.158;2023-08-01T11:19:19;3.40;;;1.85;;
16669;SDS011;8448;52.034;5.158;2023-08-01T11:21:47;4.13;;;1.88;;
16669;SDS011;8448;52.034;5.158;2023-08-01T11:24:14;5.78;;;2.00;;
16669;SDS011;8448;52.034;5.158;2023-08-01T11:26:42;4.20;;;1.92;;
16669;SDS011;8448;52.034;5.158;2023-08-01T11:29:11;4.90;;;2.20;;
16669;SDS011;8448;52.034;5.158;2023-08-01T11:31:39;4.95;;;2.13;;
16669;SDS011;8448;52.034;5.158;2023-08-01T11:34:07;7.28;;;2.42;;
16669;SDS011;8448;52.034;5.158;2023-08-01T11:36:36;6.43;;;2.22;;
16669;SDS011;8448;52.034;5.158;2023-08-01T11:39:03;7.18;;;2.50;;
16669;SDS011;8448;52.034;5.158;2023-08-01T11:41:31;4.53;;;1.95;;
16669;SDS011;8448;52.034;5.158;2023-08-01T11:44:02;8.25;;;2.50;;
16669;SDS011;8448;52.034;5.158;2023-08-01T11:46:32;4.43;;;2.10;;
16669;SDS011;8448;52.034;5.158;2023-08-01T11:49:02;4.38;;;2.10;;
16669;SDS011;8448;52.034;5.158;2023-08-01T11:51:29;6.72;;;2.22;;
16669;SDS011;8448;52.034;5.158;2023-08-01T11:54:00;6.80;;;2.25;;
16669;SDS011;8448;52.034;5.158;2023-08-01T11:56:28;8.52;;;2.63;;
16669;SDS011;8448;52.034;5.158;2023-08-01T11:58:56;9.38;;;2.40;;
16669;SDS011;8448;52.034;5.158;2023-08-01T12:01:23;8.35;;;2.72;;
16669;SDS011;8448;52.034;5.158;2023-08-01T12:03:53;6.88;;;2.47;;
16669;SDS011;8448;52.034;5.158;2023-08-01T12:06:23;6.00;;;2.40;;
16669;SDS011;8448;52.034;5.158;2023-08-01T12:08:51;4.03;;;2.10;;
16669;SDS011;8448;52.034;5.158;2023-08-01T12:11:19;5.97;;;2.10;;
16669;SDS011;8448;52.034;5.158;2023-08-01T12:13:47;7.03;;;2.45;;
16669;SDS011;8448;52.034;5.158;2023-08-01T12:16:27;6.75;;;2.28;;
16669;SDS011;8448;52.034;5.158;2023-08-01T12:18:56;8.80;;;2.83;;
16669;SDS011;8448;52.034;5.158;2023-08-01T12:21:24;5.68;;;1.92;;
16669;SDS011;8448;52.034;5.158;2023-08-01T12:23:51;4.50;;;2.00;;
16669;SDS011;8448;52.034;5.158;2023-08-01T12:26:19;5.10;;;1.90;;
16669;SDS011;8448;52.034;5.158;2023-08-01T12:28:46;6.38;;;2.10;;
16669;SDS011;8448;52.034;5.158;2023-08-01T12:31:15;4.53;;;1.65;;
16669;SDS011;8448;52.034;5.158;2023-08-01T12:33:43;4.70;;;1.70;;
16669;SDS011;8448;52.034;5.158;2023-08-01T12:36:13;4.95;;;1.80;;
16669;SDS011;8448;52.034;5.158;2023-08-01T12:38:40;3.42;;;1.67;;
16669;SDS011;8448;52.034;5.158;2023-08-01T12:41:07;3.50;;;1.63;;
16669;SDS011;8448;52.034;5.158;2023-08-01T12:43:35;4.55;;;1.60;;
16669;SDS011;8448;52.034;5.158;2023-08-01T12:46:02;5.13;;;1.70;;
16669;SDS011;8448;52.034;5.158;2023-08-01T12:48:30;5.75;;;1.98;;
16669;SDS011;8448;52.034;5.158;2023-08-01T12:50:57;6.20;;;1.85;;
16669;SDS011;8448;52.034;5.158;2023-08-01T12:53:26;6.10;;;2.05;;
16669;SDS011;8448;52.034;5.158;2023-08-01T12:55:59;6.20;;;1.88;;
16669;SDS011;8448;52.034;5.158;2023-08-01T12:58:26;5.75;;;2.13;;
16669;SDS011;8448;52.034;5.158;2023-08-01T13:00:54;3.90;;;1.80;;
16669;SDS011;8448;52.034;5.158;2023-08-01T13:03:22;3.55;;;2.08;;
16669;SDS011;8448;52.034;5.158;2023-08-01T13:05:49;5.55;;;2.17;;
16669;SDS011;8448;52.034;5.158;2023-08-01T13:08:18;7.63;;;2.10;;
16669;SDS011;8448;52.034;5.158;2023-08-01T13:10:46;4.65;;;1.83;;
16669;SDS011;8448;52.034;5.158;2023-08-01T13:13:15;4.80;;;1.80;;
16669;SDS011;8448;52.034;5.158;2023-08-01T13:15:42;5.78;;;1.90;;
16669;SDS011;8448;52.034;5.158;2023-08-01T13:18:10;5.40;;;1.80;;
16669;SDS011;8448;52.034;5.158;2023-08-01T13:20:37;4.75;;;1.75;;
16669;SDS011;8448;52.034;5.158;2023-08-01T13:23:05;5.13;;;1.80;;
16669;SDS011;8448;52.034;5.158;2023-08-01T13:25:33;5.30;;;1.85;;
16669;SDS011;8448;52.034;5.158;2023-08-01T13:28:02;3.85;;;1.90;;
16669;SDS011;8448;52.034;5.158;2023-08-01T13:30:29;5.28;;;1.67;;
16669;SDS011;8448;52.034;5.158;2023-08-01T13:32:57;3.85;;;1.83;;
16669;SDS011;8448;52.034;5.158;2023-08-01T13:35:24;5.30;;;2.00;;
16669;SDS011;8448;52.034;5.158;2023-08-01T13:37:52;4.85;;;1.83;;
16669;SDS011;8448;52.034;5.158;2023-08-01T13:40:19;4.82;;;1.80;;
16669;SDS011;8448;52.034;5.158;2023-08-01T13:42:46;8.60;;;2.15;;
16669;SDS011;8448;52.034;5.158;2023-08-01T13:45:15;5.10;;;1.83;;
16669;SDS011;8448;52.034;5.158;2023-08-01T13:47:43;5.90;;;1.75;;
16669;SDS011;8448;52.034;5.158;2023-08-01T13:50:10;4.65;;;2.00;;
16669;SDS011;8448;52.034;5.158;2023-08-01T13:52:38;7.15;;;1.90;;
16669;SDS011;8448;52.034;5.158;2023-08-01T13:55:05;7.72;;;2.03;;
16669;SDS011;8448;52.034;5.158;2023-08-01T13:57:33;6.45;;;2.05;;
16669;SDS011;8448;52.034;5.158;2023-08-01T14:00:00;7.22;;;1.80;;
16669;SDS011;8448;52.034;5.158;2023-08-01T14:02:38;5.10;;;1.90;;
16669;SDS011;8448;52.034;5.158;2023-08-01T14:05:05;6.07;;;1.90;;
16669;SDS011;8448;52.034;5.158;2023-08-01T14:07:34;5.43;;;2.13;;
16669;SDS011;8448;52.034;5.158;2023-08-01T14:10:02;3.53;;;1.70;;
16669;SDS011;8448;52.034;5.158;2023-08-01T14:12:30;4.35;;;1.70;;
16669;SDS011;8448;52.034;5.158;2023-08-01T14:14:57;4.90;;;1.80;;
16669;SDS011;8448;52.034;5.158;2023-08-01T14:17:25;6.70;;;2.22;;
16669;SDS011;8448;52.034;5.158;2023-08-01T14:19:54;5.85;;;1.83;;
16669;SDS011;8448;52.034;5.158;2023-08-01T14:22:21;4.40;;;1.95;;
16669;SDS011;8448;52.034;5.158;2023-08-01T14:24:49;4.18;;;1.70;;
16669;SDS011;8448;52.034;5.158;2023-08-01T14:27:16;5.47;;;2.33;;
16669;SDS011;8448;52.034;5.158;2023-08-01T14:29:44;6.97;;;2.28;;
16669;SDS011;8448;52.034;5.158;2023-08-01T14:32:11;6.35;;;2.10;;
16669;SDS011;8448;52.034;5.158;2023-08-01T14:34:38;5.35;;;2.13;;
16669;SDS011;8448;52.034;5.158;2023-08-01T14:37:07;5.60;;;1.75;;
16669;SDS011;8448;52.034;5.158;2023-08-01T14:39:35;6.35;;;2.00;;
16669;SDS011;8448;52.034;5.158;2023-08-01T14:42:02;6.05;;;1.90;;
16669;SDS011;8448;52.034;5.158;2023-08-01T14:44:30;6.13;;;2.17;;
16669;SDS011;8448;52.034;5.158;2023-08-01T14:46:57;4.57;;;1.85;;
16669;SDS011;8448;52.034;5.158;2023-08-01T14:49:25;5.32;;;2.00;;
16669;SDS011;8448;52.034;5.158;2023-08-01T14:51:54;6.00;;;1.80;;
16669;SDS011;8448;52.034;5.158;2023-08-01T14:54:23;4.20;;;1.80;;
16669;SDS011;8448;52.034;5.158;2023-08-01T14:56:51;5.60;;;1.67;;
16669;SDS011;8448;52.034;5.158;2023-08-01T14:59:18;4.68;;;1.73;;
16669;SDS011;8448;52.034;5.158;2023-08-01T15:01:46;4.32;;;1.92;;
16669;SDS011;8448;52.034;5.158;2023-08-01T15:04:13;5.07;;;1.88;;